sensor_id;sensor_type;location;lat;lon;timestamp;P1;durP1;ratioP1;P2;durP2;ratioP2
72882;SDS011;61017;37.812;-122.286;2023-05-14T00:00:40;8.20;;;4.45;;
72882;SDS011;61017;37.812;-122.286;2023-05-14T00:02:11;7.38;;;4.70;;
72882;SDS011;61017;37.812;-122.286;2023-05-14T00:03:43;7.25;;;4.50;;
72882;SDS011;61017;37.812;-122.286;2023-05-14T00:05:15;7.90;;;4.50;;
72882;SDS011;61017;37.812;-122.286;2023-05-14T00:06:46;7.50;;;4.45;;
72882;SDS011;61017;37.812;-122.286;2023-05-14T00:08:18;7.30;;;4.75;;
72882;SDS011;61017;37.812;-122.286;2023-05-14T00:09:49;8.13;;;4.53;;
72882;SDS011;61017;37.812;-122.286;2023-05-14T00:11:21;8.50;;;4.40;;
72882;SDS011;61017;37.812;-122.286;2023-05-14T00:12:52;8.02;;;4.60;;
72882;SDS011;61017;37.812;-122.286;2023-05-14T00:14:24;7.20;;;4.70;;
72882;SDS011;61017;37.812;-122.286;2023-05-14T00:16:15;6.93;;;4.30;;
72882;SDS011;61017;37.812;-122.286;2023-05-14T00:17:47;7.20;;;4.25;;
72882;SDS011;61017;37.812;-122.286;2023-05-14T00:19:18;8.32;;;5.05;;
72882;SDS011;61017;37.812;-122.286;2023-05-14T00:20:50;7.65;;;4.60;;
72882;SDS011;61017;37.812;-122.286;2023-05-14T00:22:22;9.00;;;4.50;;
72882;SDS011;61017;37.812;-122.286;2023-05-14T00:23:53;8.95;;;4.32;;
72882;SDS011;61017;37.812;-122.286;2023-05-14T00:25:25;8.27;;;4.40;;
72882;SDS011;61017;37.812;-122.286;2023-05-14T00:26:56;7.28;;;4.80;;
72882;SDS011;61017;37.812;-122.286;2023-05-14T00:28:29;8.25;;;4.03;;
72882;SDS011;61017;37.812;-122.286;2023-05-14T00:30:01;7.53;;;4.25;;
72882;SDS011;61017;37.812;-122.286;2023-05-14T00:31:34;9.65;;;4.50;;
72882;SDS011;61017;37.812;-122.286;2023-05-14T00:33:06;8.45;;;4.75;;
72882;SDS011;61017;37.812;-122.286;2023-05-14T00:34:37;6.78;;;4.22;;
72882;SDS011;61017;37.812;-122.286;2023-05-14T00:36:09;8.02;;;4.00;;
72882;SDS011;61017;37.812;-122.286;2023-05-14T00:37:40;6.38;;;4.20;;
72882;SDS011;61017;37.812;-122.286;2023-05-14T00:39:12;7.28;;;4.28;;
72882;SDS011;61017;37.812;-122.286;2023-05-14T00:40:44;6.78;;;4.20;;
72882;SDS011;61017;37.812;-122.286;2023-05-14T00:42:16;7.40;;;4.47;;
72882;SDS011;61017;37.812;-122.286;2023-05-14T00:43:48;7.60;;;4.43;;
72882;SDS011;61017;37.812;-122.286;2023-05-14T00:45:19;6.47;;;4.13;;
72882;SDS011;61017;37.812;-122.286;2023-05-14T00:46:51;6.38;;;3.90;;
72882;SDS011;61017;37.812;-122.286;2023-05-14T00:48:23;6.80;;;4.43;;
72882;SDS011;61017;37.812;-122.286;2023-05-14T00:49:55;6.90;;;3.90;;
72882;SDS011;61017;37.812;-122.286;2023-05-14T00:51:27;7.95;;;3.72;;
72882;SDS011;61017;37.812;-122.286;2023-05-14T00:52:58;9.57;;;4.25;;
72882;SDS011;61017;37.812;-122.286;2023-05-14T00:54:30;6.03;;;3.60;;
72882;SDS011;61017;37.812;-122.286;2023-05-14T00:56:02;6.50;;;3.90;;
72882;SDS011;61017;37.812;-122.286;2023-05-14T00:57:34;7.03;;;4.15;;
72882;SDS011;61017;37.812;-122.286;2023-05-14T00:59:06;5.57;;;3.88;;
72882;SDS011;61017;37.812;-122.286;2023-05-14T01:00:38;6.32;;;3.60;;
72882;SDS011;61017;37.812;-122.286;2023-05-14T01:02:10;8.07;;;4.13;;
72882;SDS011;61017;37.812;-122.286;2023-05-14T01:03:42;6.00;;;3.90;;
72882;SDS011;61017;37.812;-122.286;2023-05-14T01:05:14;5.00;;;3.60;;
72882;SDS011;61017;37.812;-122.286;2023-05-14T01:06:50;7.40;;;3.70;;
72882;SDS011;61017;37.812;-122.286;2023-05-14T01:10:35;6.97;;;3.83;;
72882;SDS011;61017;37.812;-122.286;2023-05-14T01:14:18;6.95;;;3.60;;
72882;SDS011;61017;37.812;-122.286;2023-05-14T01:15:56;9.50;;;4.18;;
72882;SDS011;61017;37.812;-122.286;2023-05-14T01:17:30;5.85;;;3.85;;
72882;SDS011;61017;37.812;-122.286;2023-05-14T01:19:09;7.00;;;3.60;;
72882;SDS011;61017;37.812;-122.286;2023-05-14T01:20:49;4.60;;;3.45;;
72882;SDS011;61017;37.812;-122.286;2023-05-14T01:22:21;6.33;;;3.70;;
72882;SDS011;61017;37.812;-122.286;2023-05-14T01:23:52;7.50;;;3.60;;
72882;SDS011;61017;37.812;-122.286;2023-05-14T01:25:24;6.43;;;3.72;;
72882;SDS011;61017;37.812;-122.286;2023-05-14T01:26:57;6.85;;;3.92;;
72882;SDS011;61017;37.812;-122.286;2023-05-14T01:28:36;7.95;;;3.80;;
72882;SDS011;61017;37.812;-122.286;2023-05-14T01:30:17;6.63;;;3.75;;
72882;SDS011;61017;37.812;-122.286;2023-05-14T01:31:50;5.28;;;3.63;;
72882;SDS011;61017;37.812;-122.286;2023-05-14T01:33:24;6.50;;;3.70;;
72882;SDS011;61017;37.812;-122.286;2023-05-14T01:35:01;6.53;;;3.67;;
72882;SDS011;61017;37.812;-122.286;2023-05-14T01:36:34;7.97;;;3.80;;
72882;SDS011;61017;37.812;-122.286;2023-05-14T01:38:08;6.45;;;3.60;;
72882;SDS011;61017;37.812;-122.286;2023-05-14T01:39:41;5.55;;;3.90;;
72882;SDS011;61017;37.812;-122.286;2023-05-14T01:41:14;6.05;;;3.60;;
72882;SDS011;61017;37.812;-122.286;2023-05-14T01:42:47;7.40;;;3.95;;
72882;SDS011;61017;37.812;-122.286;2023-05-14T01:44:20;5.60;;;3.75;;
72882;SDS011;61017;37.812;-122.286;2023-05-14T01:45:51;5.95;;;3.60;;
72882;SDS011;61017;37.812;-122.286;2023-05-14T01:47:23;5.65;;;3.60;;
72882;SDS011;61017;37.812;-122.286;2023-05-14T01:48:54;5.63;;;3.70;;
72882;SDS011;61017;37.812;-122.286;2023-05-14T01:50:26;4.68;;;3.20;;
72882;SDS011;61017;37.812;-122.286;2023-05-14T01:51:58;4.72;;;3.38;;
72882;SDS011;61017;37.812;-122.286;2023-05-14T01:53:29;5.68;;;3.60;;
72882;SDS011;61017;37.812;-122.286;2023-05-14T01:55:01;4.43;;;3.55;;
72882;SDS011;61017;37.812;-122.286;2023-05-14T01:56:32;5.90;;;3.40;;
72882;SDS011;61017;37.812;-122.286;2023-05-14T01:58:04;9.20;;;3.78;;
72882;SDS011;61017;37.812;-122.286;2023-05-14T01:59:36;7.30;;;3.70;;
72882;SDS011;61017;37.812;-122.286;2023-05-14T02:01:07;7.32;;;3.67;;
72882;SDS011;61017;37.812;-122.286;2023-05-14T02:02:39;6.20;;;3.83;;
72882;SDS011;61017;37.812;-122.286;2023-05-14T02:04:10;6.00;;;3.58;;
72882;SDS011;61017;37.812;-122.286;2023-05-14T02:05:42;7.75;;;3.40;;
72882;SDS011;61017;37.812;-122.286;2023-05-14T02:07:13;6.72;;;3.58;;
72882;SDS011;61017;37.812;-122.286;2023-05-14T02:08:45;5.68;;;3.38;;
72882;SDS011;61017;37.812;-122.286;2023-05-14T02:10:17;4.93;;;3.40;;
72882;SDS011;61017;37.812;-122.286;2023-05-14T02:11:48;4.60;;;3.10;;
72882;SDS011;61017;37.812;-122.286;2023-05-14T02:13:20;5.25;;;3.60;;
72882;SDS011;61017;37.812;-122.286;2023-05-14T02:14:51;6.95;;;3.67;;
72882;SDS011;61017;37.812;-122.286;2023-05-14T02:16:23;9.10;;;3.50;;
72882;SDS011;61017;37.812;-122.286;2023-05-14T02:17:54;5.43;;;2.97;;
72882;SDS011;61017;37.812;-122.286;2023-05-14T02:19:26;5.50;;;3.42;;
72882;SDS011;61017;37.812;-122.286;2023-05-14T02:20:57;5.30;;;3.45;;
72882;SDS011;61017;37.812;-122.286;2023-05-14T02:22:29;5.35;;;3.47;;
72882;SDS011;61017;37.812;-122.286;2023-05-14T02:24:00;6.00;;;3.28;;
72882;SDS011;61017;37.812;-122.286;2023-05-14T02:25:32;5.00;;;3.17;;
72882;SDS011;61017;37.812;-122.286;2023-05-14T02:27:04;5.65;;;3.67;;
72882;SDS011;61017;37.812;-122.286;2023-05-14T02:28:38;8.20;;;3.63;;
72882;SDS011;61017;37.812;-122.286;2023-05-14T02:30:10;5.65;;;3.63;;
72882;SDS011;61017;37.812;-122.286;2023-05-14T02:31:42;6.03;;;3.20;;
72882;SDS011;61017;37.812;-122.286;2023-05-14T02:33:13;5.25;;;3.38;;
72882;SDS011;61017;37.812;-122.286;2023-05-14T02:34:45;7.20;;;3.22;;
72882;SDS011;61017;37.812;-122.286;2023-05-14T02:36:19;7.55;;;3.45;;
72882;SDS011;61017;37.812;-122.286;2023-05-14T02:37:51;7.45;;;3.60;;
72882;SDS011;61017;37.812;-122.286;2023-05-14T02:39:22;6.85;;;3.80;;
72882;SDS011;61017;37.812;-122.286;2023-05-14T02:40:54;6.30;;;3.28;;
72882;SDS011;61017;37.812;-122.286;2023-05-14T02:42:25;6.80;;;3.55;;
72882;SDS011;61017;37.812;-122.286;2023-05-14T02:43:57;6.13;;;3.70;;
72882;SDS011;61017;37.812;-122.286;2023-05-14T02:45:29;5.97;;;3.28;;
72882;SDS011;61017;37.812;-122.286;2023-05-14T02:47:00;4.18;;;3.13;;
72882;SDS011;61017;37.812;-122.286;2023-05-14T02:48:32;6.13;;;3.60;;
72882;SDS011;61017;37.812;-122.286;2023-05-14T02:50:04;5.30;;;3.40;;
72882;SDS011;61017;37.812;-122.286;2023-05-14T02:51:36;6.75;;;3.72;;
72882;SDS011;61017;37.812;-122.286;2023-05-14T02:53:07;7.45;;;3.40;;
72882;SDS011;61017;37.812;-122.286;2023-05-14T02:54:39;5.10;;;3.45;;
72882;SDS011;61017;37.812;-122.286;2023-05-14T02:56:10;5.28;;;3.53;;
72882;SDS011;61017;37.812;-122.286;2023-05-14T02:57:42;5.45;;;3.35;;
72882;SDS011;61017;37.812;-122.286;2023-05-14T02:59:13;7.13;;;3.55;;
72882;SDS011;61017;37.812;-122.286;2023-05-14T03:00:45;6.85;;;3.13;;
72882;SDS011;61017;37.812;-122.286;2023-05-14T03:02:16;6.43;;;3.40;;
72882;SDS011;61017;37.812;-122.286;2023-05-14T03:03:48;8.70;;;3.22;;
72882;SDS011;61017;37.812;-122.286;2023-05-14T03:05:21;6.75;;;3.28;;
72882;SDS011;61017;37.812;-122.286;2023-05-14T03:06:53;4.63;;;3.20;;
72882;SDS011;61017;37.812;-122.286;2023-05-14T03:08:24;6.38;;;3.53;;
72882;SDS011;61017;37.812;-122.286;2023-05-14T03:09:55;6.30;;;3.47;;
72882;SDS011;61017;37.812;-122.286;2023-05-14T03:11:27;5.80;;;3.22;;
72882;SDS011;61017;37.812;-122.286;2023-05-14T03:12:59;6.13;;;3.00;;
72882;SDS011;61017;37.812;-122.286;2023-05-14T03:14:30;6.07;;;3.38;;
72882;SDS011;61017;37.812;-122.286;2023-05-14T03:16:02;6.18;;;3.60;;
72882;SDS011;61017;37.812;-122.286;2023-05-14T03:17:33;7.82;;;3.55;;
72882;SDS011;61017;37.812;-122.286;2023-05-14T03:19:05;6.72;;;3.60;;
72882;SDS011;61017;37.812;-122.286;2023-05-14T03:20:37;6.00;;;3.33;;
72882;SDS011;61017;37.812;-122.286;2023-05-14T03:22:08;8.05;;;3.40;;
72882;SDS011;61017;37.812;-122.286;2023-05-14T03:23:40;7.65;;;3.47;;
72882;SDS011;61017;37.812;-122.286;2023-05-14T03:25:11;6.13;;;3.28;;
72882;SDS011;61017;37.812;-122.286;2023-05-14T03:26:43;7.93;;;3.70;;
72882;SDS011;61017;37.812;-122.286;2023-05-14T03:28:14;6.90;;;3.22;;
72882;SDS011;61017;37.812;-122.286;2023-05-14T03:29:46;7.53;;;3.42;;
72882;SDS011;61017;37.812;-122.286;2023-05-14T03:31:17;7.63;;;3.72;;
72882;SDS011;61017;37.812;-122.286;2023-05-14T03:32:49;5.95;;;3.30;;
72882;SDS011;61017;37.812;-122.286;2023-05-14T03:34:21;6.65;;;3.25;;
72882;SDS011;61017;37.812;-122.286;2023-05-14T03:35:52;6.82;;;3.38;;
72882;SDS011;61017;37.812;-122.286;2023-05-14T03:37:24;6.80;;;3.42;;
72882;SDS011;61017;37.812;-122.286;2023-05-14T03:38:55;6.57;;;3.28;;
72882;SDS011;61017;37.812;-122.286;2023-05-14T03:40:27;5.95;;;3.28;;
72882;SDS011;61017;37.812;-122.286;2023-05-14T03:41:59;5.60;;;3.50;;
72882;SDS011;61017;37.812;-122.286;2023-05-14T03:43:30;7.60;;;3.95;;
72882;SDS011;61017;37.812;-122.286;2023-05-14T03:45:02;4.53;;;3.20;;
72882;SDS011;61017;37.812;-122.286;2023-05-14T03:46:34;5.57;;;3.30;;
72882;SDS011;61017;37.812;-122.286;2023-05-14T03:48:05;6.60;;;3.50;;
72882;SDS011;61017;37.812;-122.286;2023-05-14T03:49:37;5.95;;;3.60;;
72882;SDS011;61017;37.812;-122.286;2023-05-14T03:51:08;6.75;;;2.88;;
72882;SDS011;61017;37.812;-122.286;2023-05-14T03:52:40;6.60;;;3.35;;
72882;SDS011;61017;37.812;-122.286;2023-05-14T03:54:11;5.93;;;3.35;;
72882;SDS011;61017;37.812;-122.286;2023-05-14T03:55:43;6.03;;;3.28;;
72882;SDS011;61017;37.812;-122.286;2023-05-14T03:57:14;7.47;;;3.70;;
72882;SDS011;61017;37.812;-122.286;2023-05-14T03:58:46;7.05;;;3.75;;
72882;SDS011;61017;37.812;-122.286;2023-05-14T04:00:17;5.05;;;3.20;;
72882;SDS011;61017;37.812;-122.286;2023-05-14T04:01:49;7.85;;;3.85;;
72882;SDS011;61017;37.812;-122.286;2023-05-14T04:03:21;7.78;;;3.38;;
72882;SDS011;61017;37.812;-122.286;2023-05-14T04:04:52;7.32;;;3.72;;
72882;SDS011;61017;37.812;-122.286;2023-05-14T04:06:24;7.30;;;3.45;;
72882;SDS011;61017;37.812;-122.286;2023-05-14T04:07:56;6.50;;;3.40;;
72882;SDS011;61017;37.812;-122.286;2023-05-14T04:09:27;6.85;;;3.50;;
72882;SDS011;61017;37.812;-122.286;2023-05-14T04:10:59;7.45;;;3.50;;
72882;SDS011;61017;37.812;-122.286;2023-05-14T04:12:30;6.72;;;3.60;;
72882;SDS011;61017;37.812;-122.286;2023-05-14T04:14:02;6.68;;;3.30;;
72882;SDS011;61017;37.812;-122.286;2023-05-14T04:15:33;7.70;;;3.63;;
72882;SDS011;61017;37.812;-122.286;2023-05-14T04:17:05;8.63;;;3.60;;
72882;SDS011;61017;37.812;-122.286;2023-05-14T04:18:37;7.25;;;3.70;;
72882;SDS011;61017;37.812;-122.286;2023-05-14T04:20:09;6.25;;;3.72;;
72882;SDS011;61017;37.812;-122.286;2023-05-14T04:21:40;7.30;;;3.55;;
72882;SDS011;61017;37.812;-122.286;2023-05-14T04:23:12;10.32;;;3.65;;
72882;SDS011;61017;37.812;-122.286;2023-05-14T04:24:43;8.02;;;3.70;;
72882;SDS011;61017;37.812;-122.286;2023-05-14T04:26:15;9.27;;;3.85;;
72882;SDS011;61017;37.812;-122.286;2023-05-14T04:27:47;9.88;;;3.60;;
72882;SDS011;61017;37.812;-122.286;2023-05-14T04:29:18;8.25;;;3.60;;
72882;SDS011;61017;37.812;-122.286;2023-05-14T04:30:50;7.00;;;3.10;;
72882;SDS011;61017;37.812;-122.286;2023-05-14T04:32:22;8.20;;;3.30;;
72882;SDS011;61017;37.812;-122.286;2023-05-14T04:33:53;9.60;;;3.60;;
72882;SDS011;61017;37.812;-122.286;2023-05-14T04:35:25;8.57;;;3.70;;
72882;SDS011;61017;37.812;-122.286;2023-05-14T04:36:56;8.25;;;3.42;;
72882;SDS011;61017;37.812;-122.286;2023-05-14T04:38:28;5.97;;;3.47;;
72882;SDS011;61017;37.812;-122.286;2023-05-14T04:40:00;5.78;;;3.30;;
72882;SDS011;61017;37.812;-122.286;2023-05-14T04:41:32;6.95;;;3.67;;
72882;SDS011;61017;37.812;-122.286;2023-05-14T04:43:03;7.32;;;3.13;;
72882;SDS011;61017;37.812;-122.286;2023-05-14T04:44:35;8.57;;;3.63;;
72882;SDS011;61017;37.812;-122.286;2023-05-14T04:46:06;6.40;;;3.45;;
72882;SDS011;61017;37.812;-122.286;2023-05-14T04:47:38;7.60;;;3.50;;
72882;SDS011;61017;37.812;-122.286;2023-05-14T04:49:10;6.38;;;3.25;;
72882;SDS011;61017;37.812;-122.286;2023-05-14T04:50:42;8.40;;;3.60;;
72882;SDS011;61017;37.812;-122.286;2023-05-14T04:52:14;5.93;;;3.50;;
72882;SDS011;61017;37.812;-122.286;2023-05-14T04:53:45;7.07;;;3.20;;
72882;SDS011;61017;37.812;-122.286;2023-05-14T04:55:17;6.57;;;3.42;;
72882;SDS011;61017;37.812;-122.286;2023-05-14T04:56:49;8.43;;;3.60;;
72882;SDS011;61017;37.812;-122.286;2023-05-14T04:58:20;8.50;;;3.17;;
72882;SDS011;61017;37.812;-122.286;2023-05-14T04:59:52;5.30;;;3.13;;
72882;SDS011;61017;37.812;-122.286;2023-05-14T05:01:23;7.30;;;3.40;;
72882;SDS011;61017;37.812;-122.286;2023-05-14T05:02:55;5.80;;;3.10;;
72882;SDS011;61017;37.812;-122.286;2023-05-14T05:04:26;8.25;;;3.13;;
72882;SDS011;61017;37.812;-122.286;2023-05-14T05:05:58;7.22;;;3.70;;
72882;SDS011;61017;37.812;-122.286;2023-05-14T05:07:30;7.63;;;3.22;;
72882;SDS011;61017;37.812;-122.286;2023-05-14T05:09:01;5.82;;;3.15;;
72882;SDS011;61017;37.812;-122.286;2023-05-14T05:10:33;6.82;;;3.20;;
72882;SDS011;61017;37.812;-122.286;2023-05-14T05:12:05;8.35;;;3.58;;
72882;SDS011;61017;37.812;-122.286;2023-05-14T05:13:36;8.50;;;3.55;;
72882;SDS011;61017;37.812;-122.286;2023-05-14T05:15:08;8.32;;;3.30;;
72882;SDS011;61017;37.812;-122.286;2023-05-14T05:16:40;6.45;;;3.13;;
72882;SDS011;61017;37.812;-122.286;2023-05-14T05:18:11;6.05;;;3.10;;
72882;SDS011;61017;37.812;-122.286;2023-05-14T05:19:43;6.22;;;3.10;;
72882;SDS011;61017;37.812;-122.286;2023-05-14T05:21:15;5.95;;;3.13;;
72882;SDS011;61017;37.812;-122.286;2023-05-14T05:22:46;6.82;;;3.45;;
72882;SDS011;61017;37.812;-122.286;2023-05-14T05:24:18;6.20;;;3.17;;
72882;SDS011;61017;37.812;-122.286;2023-05-14T05:25:49;6.10;;;3.13;;
72882;SDS011;61017;37.812;-122.286;2023-05-14T05:27:21;5.70;;;3.40;;
72882;SDS011;61017;37.812;-122.286;2023-05-14T05:28:52;7.10;;;3.60;;
72882;SDS011;61017;37.812;-122.286;2023-05-14T05:30:24;9.32;;;3.42;;
72882;SDS011;61017;37.812;-122.286;2023-05-14T05:31:55;5.50;;;3.50;;
72882;SDS011;61017;37.812;-122.286;2023-05-14T05:33:27;6.45;;;3.63;;
72882;SDS011;61017;37.812;-122.286;2023-05-14T05:34:59;6.63;;;3.15;;
72882;SDS011;61017;37.812;-122.286;2023-05-14T05:36:30;6.68;;;3.10;;
72882;SDS011;61017;37.812;-122.286;2023-05-14T05:38:02;6.38;;;3.35;;
72882;SDS011;61017;37.812;-122.286;2023-05-14T05:39:33;5.90;;;3.45;;
72882;SDS011;61017;37.812;-122.286;2023-05-14T05:41:05;6.05;;;3.38;;
72882;SDS011;61017;37.812;-122.286;2023-05-14T05:42:36;7.47;;;3.40;;
72882;SDS011;61017;37.812;-122.286;2023-05-14T05:44:08;6.63;;;3.50;;
72882;SDS011;61017;37.812;-122.286;2023-05-14T05:45:40;5.07;;;3.03;;
72882;SDS011;61017;37.812;-122.286;2023-05-14T05:47:11;5.63;;;3.20;;
72882;SDS011;61017;37.812;-122.286;2023-05-14T05:48:43;5.93;;;3.47;;
72882;SDS011;61017;37.812;-122.286;2023-05-14T05:50:14;5.15;;;3.03;;
72882;SDS011;61017;37.812;-122.286;2023-05-14T05:51:46;7.63;;;3.55;;
72882;SDS011;61017;37.812;-122.286;2023-05-14T05:53:17;5.00;;;2.92;;
72882;SDS011;61017;37.812;-122.286;2023-05-14T05:54:49;5.82;;;3.28;;
72882;SDS011;61017;37.812;-122.286;2023-05-14T05:56:20;9.07;;;3.35;;
72882;SDS011;61017;37.812;-122.286;2023-05-14T05:57:52;5.07;;;3.10;;
72882;SDS011;61017;37.812;-122.286;2023-05-14T05:59:23;5.38;;;3.05;;
72882;SDS011;61017;37.812;-122.286;2023-05-14T06:00:55;6.38;;;3.20;;
72882;SDS011;61017;37.812;-122.286;2023-05-14T06:02:27;7.70;;;3.30;;
72882;SDS011;61017;37.812;-122.286;2023-05-14T06:03:58;5.43;;;3.28;;
72882;SDS011;61017;37.812;-122.286;2023-05-14T06:05:30;6.70;;;3.40;;
72882;SDS011;61017;37.812;-122.286;2023-05-14T06:07:04;6.60;;;2.72;;
72882;SDS011;61017;37.812;-122.286;2023-05-14T06:08:37;5.10;;;2.88;;
72882;SDS011;61017;37.812;-122.286;2023-05-14T06:10:08;7.65;;;3.40;;
72882;SDS011;61017;37.812;-122.286;2023-05-14T06:11:40;6.30;;;3.10;;
72882;SDS011;61017;37.812;-122.286;2023-05-14T06:13:12;5.78;;;3.03;;
72882;SDS011;61017;37.812;-122.286;2023-05-14T06:14:43;5.72;;;3.45;;
72882;SDS011;61017;37.812;-122.286;2023-05-14T06:16:15;4.93;;;3.20;;
72882;SDS011;61017;37.812;-122.286;2023-05-14T06:17:46;5.28;;;2.92;;
72882;SDS011;61017;37.812;-122.286;2023-05-14T06:19:18;6.85;;;3.00;;
72882;SDS011;61017;37.812;-122.286;2023-05-14T06:20:52;4.88;;;2.90;;
72882;SDS011;61017;37.812;-122.286;2023-05-14T06:22:23;5.82;;;2.80;;
72882;SDS011;61017;37.812;-122.286;2023-05-14T06:23:55;5.03;;;3.03;;
72882;SDS011;61017;37.812;-122.286;2023-05-14T06:25:26;6.45;;;3.13;;
72882;SDS011;61017;37.812;-122.286;2023-05-14T06:26:58;5.80;;;3.10;;
72882;SDS011;61017;37.812;-122.286;2023-05-14T06:28:29;6.45;;;3.03;;
72882;SDS011;61017;37.812;-122.286;2023-05-14T06:30:01;4.15;;;2.67;;
72882;SDS011;61017;37.812;-122.286;2023-05-14T06:31:33;4.07;;;2.78;;
72882;SDS011;61017;37.812;-122.286;2023-05-14T06:33:05;6.43;;;2.97;;
72882;SDS011;61017;37.812;-122.286;2023-05-14T06:34:37;4.63;;;3.03;;
72882;SDS011;61017;37.812;-122.286;2023-05-14T06:36:08;4.20;;;2.60;;
72882;SDS011;61017;37.812;-122.286;2023-05-14T06:37:43;4.18;;;2.60;;
72882;SDS011;61017;37.812;-122.286;2023-05-14T06:39:15;5.05;;;2.53;;
72882;SDS011;61017;37.812;-122.286;2023-05-14T06:40:46;5.45;;;3.05;;
72882;SDS011;61017;37.812;-122.286;2023-05-14T06:42:18;5.30;;;2.85;;
72882;SDS011;61017;37.812;-122.286;2023-05-14T06:43:50;4.85;;;2.80;;
72882;SDS011;61017;37.812;-122.286;2023-05-14T06:45:21;3.83;;;2.45;;
72882;SDS011;61017;37.812;-122.286;2023-05-14T06:46:53;5.65;;;2.78;;
72882;SDS011;61017;37.812;-122.286;2023-05-14T06:48:24;4.82;;;2.40;;
72882;SDS011;61017;37.812;-122.286;2023-05-14T06:49:56;4.57;;;2.70;;
72882;SDS011;61017;37.812;-122.286;2023-05-14T06:51:27;5.40;;;2.67;;
72882;SDS011;61017;37.812;-122.286;2023-05-14T06:52:59;4.05;;;2.45;;
72882;SDS011;61017;37.812;-122.286;2023-05-14T06:54:30;5.30;;;2.65;;
72882;SDS011;61017;37.812;-122.286;2023-05-14T06:56:02;3.70;;;2.33;;
72882;SDS011;61017;37.812;-122.286;2023-05-14T06:57:37;4.68;;;2.80;;
72882;SDS011;61017;37.812;-122.286;2023-05-14T06:59:08;4.43;;;2.92;;
72882;SDS011;61017;37.812;-122.286;2023-05-14T07:00:40;4.97;;;2.55;;
72882;SDS011;61017;37.812;-122.286;2023-05-14T07:02:12;4.80;;;2.70;;
72882;SDS011;61017;37.812;-122.286;2023-05-14T07:03:44;3.90;;;2.67;;
72882;SDS011;61017;37.812;-122.286;2023-05-14T07:05:16;5.97;;;2.75;;
72882;SDS011;61017;37.812;-122.286;2023-05-14T07:06:48;5.60;;;2.40;;
72882;SDS011;61017;37.812;-122.286;2023-05-14T07:08:19;4.43;;;2.53;;
72882;SDS011;61017;37.812;-122.286;2023-05-14T07:09:51;4.10;;;2.30;;
72882;SDS011;61017;37.812;-122.286;2023-05-14T07:11:22;4.60;;;2.30;;
72882;SDS011;61017;37.812;-122.286;2023-05-14T07:12:54;3.70;;;2.35;;
72882;SDS011;61017;37.812;-122.286;2023-05-14T07:14:25;4.78;;;2.45;;
72882;SDS011;61017;37.812;-122.286;2023-05-14T07:15:57;4.85;;;2.70;;
72882;SDS011;61017;37.812;-122.286;2023-05-14T07:17:29;5.82;;;2.90;;
72882;SDS011;61017;37.812;-122.286;2023-05-14T07:19:00;5.93;;;2.45;;
72882;SDS011;61017;37.812;-122.286;2023-05-14T07:20:32;5.35;;;2.55;;
72882;SDS011;61017;37.812;-122.286;2023-05-14T07:22:04;5.97;;;2.90;;
72882;SDS011;61017;37.812;-122.286;2023-05-14T07:23:35;5.47;;;2.70;;
72882;SDS011;61017;37.812;-122.286;2023-05-14T07:25:09;5.60;;;2.60;;
72882;SDS011;61017;37.812;-122.286;2023-05-14T07:26:41;4.30;;;2.53;;
72882;SDS011;61017;37.812;-122.286;2023-05-14T07:28:12;3.78;;;2.78;;
72882;SDS011;61017;37.812;-122.286;2023-05-14T07:29:44;4.07;;;2.87;;
72882;SDS011;61017;37.812;-122.286;2023-05-14T07:31:16;5.05;;;2.92;;
72882;SDS011;61017;37.812;-122.286;2023-05-14T07:32:47;3.67;;;2.47;;
72882;SDS011;61017;37.812;-122.286;2023-05-14T07:34:19;5.30;;;2.60;;
72882;SDS011;61017;37.812;-122.286;2023-05-14T07:35:51;4.55;;;2.80;;
72882;SDS011;61017;37.812;-122.286;2023-05-14T07:37:23;5.28;;;2.90;;
72882;SDS011;61017;37.812;-122.286;2023-05-14T07:38:55;5.23;;;2.50;;
72882;SDS011;61017;37.812;-122.286;2023-05-14T07:40:26;5.82;;;3.00;;
72882;SDS011;61017;37.812;-122.286;2023-05-14T07:41:59;6.85;;;2.92;;
72882;SDS011;61017;37.812;-122.286;2023-05-14T07:45:02;4.32;;;2.80;;
72882;SDS011;61017;37.812;-122.286;2023-05-14T07:46:35;6.05;;;2.95;;
72882;SDS011;61017;37.812;-122.286;2023-05-14T07:48:06;5.25;;;2.83;;
72882;SDS011;61017;37.812;-122.286;2023-05-14T07:49:41;4.10;;;2.63;;
72882;SDS011;61017;37.812;-122.286;2023-05-14T07:51:16;4.10;;;3.00;;
72882;SDS011;61017;37.812;-122.286;2023-05-14T07:52:47;4.78;;;2.97;;
72882;SDS011;61017;37.812;-122.286;2023-05-14T07:54:19;4.88;;;2.92;;
72882;SDS011;61017;37.812;-122.286;2023-05-14T07:55:50;4.60;;;3.00;;
72882;SDS011;61017;37.812;-122.286;2023-05-14T07:57:22;5.22;;;3.17;;
72882;SDS011;61017;37.812;-122.286;2023-05-14T07:58:54;5.82;;;3.03;;
72882;SDS011;61017;37.812;-122.286;2023-05-14T08:00:26;4.30;;;2.60;;
72882;SDS011;61017;37.812;-122.286;2023-05-14T08:01:58;5.75;;;3.03;;
72882;SDS011;61017;37.812;-122.286;2023-05-14T08:03:29;4.65;;;3.13;;
72882;SDS011;61017;37.812;-122.286;2023-05-14T08:05:01;5.40;;;3.10;;
72882;SDS011;61017;37.812;-122.286;2023-05-14T08:06:32;4.68;;;3.10;;
72882;SDS011;61017;37.812;-122.286;2023-05-14T08:08:04;3.65;;;2.35;;
72882;SDS011;61017;37.812;-122.286;2023-05-14T08:09:35;4.20;;;2.67;;
72882;SDS011;61017;37.812;-122.286;2023-05-14T08:11:07;4.60;;;3.08;;
72882;SDS011;61017;37.812;-122.286;2023-05-14T08:12:39;4.25;;;2.90;;
72882;SDS011;61017;37.812;-122.286;2023-05-14T08:14:10;3.92;;;2.55;;
72882;SDS011;61017;37.812;-122.286;2023-05-14T08:15:42;3.85;;;2.50;;
72882;SDS011;61017;37.812;-122.286;2023-05-14T08:17:13;4.57;;;2.65;;
72882;SDS011;61017;37.812;-122.286;2023-05-14T08:18:45;3.83;;;2.50;;
72882;SDS011;61017;37.812;-122.286;2023-05-14T08:20:16;4.35;;;2.70;;
72882;SDS011;61017;37.812;-122.286;2023-05-14T08:21:48;4.03;;;2.60;;
72882;SDS011;61017;37.812;-122.286;2023-05-14T08:23:20;4.75;;;2.67;;
72882;SDS011;61017;37.812;-122.286;2023-05-14T08:24:51;3.47;;;2.72;;
72882;SDS011;61017;37.812;-122.286;2023-05-14T08:26:23;3.90;;;2.78;;
72882;SDS011;61017;37.812;-122.286;2023-05-14T08:27:55;4.03;;;2.55;;
72882;SDS011;61017;37.812;-122.286;2023-05-14T08:29:27;4.00;;;2.58;;
72882;SDS011;61017;37.812;-122.286;2023-05-14T08:30:58;4.05;;;2.50;;
72882;SDS011;61017;37.812;-122.286;2023-05-14T08:32:30;3.50;;;2.40;;
72882;SDS011;61017;37.812;-122.286;2023-05-14T08:34:02;3.70;;;2.78;;
72882;SDS011;61017;37.812;-122.286;2023-05-14T08:35:33;4.80;;;2.75;;
72882;SDS011;61017;37.812;-122.286;2023-05-14T08:37:05;5.05;;;2.97;;
72882;SDS011;61017;37.812;-122.286;2023-05-14T08:38:36;4.03;;;2.70;;
72882;SDS011;61017;37.812;-122.286;2023-05-14T08:40:08;4.20;;;2.42;;
72882;SDS011;61017;37.812;-122.286;2023-05-14T08:41:40;4.22;;;2.70;;
72882;SDS011;61017;37.812;-122.286;2023-05-14T08:43:12;3.97;;;2.60;;
72882;SDS011;61017;37.812;-122.286;2023-05-14T08:44:55;4.55;;;2.67;;
72882;SDS011;61017;37.812;-122.286;2023-05-14T08:46:30;5.00;;;2.90;;
72882;SDS011;61017;37.812;-122.286;2023-05-14T08:48:03;4.28;;;2.90;;
72882;SDS011;61017;37.812;-122.286;2023-05-14T08:49:38;4.10;;;2.60;;
72882;SDS011;61017;37.812;-122.286;2023-05-14T08:51:12;4.60;;;2.90;;
72882;SDS011;61017;37.812;-122.286;2023-05-14T08:52:44;3.85;;;2.88;;
72882;SDS011;61017;37.812;-122.286;2023-05-14T08:54:15;3.53;;;2.60;;
72882;SDS011;61017;37.812;-122.286;2023-05-14T08:55:48;4.90;;;2.90;;